Time;durP1;ratioP1;P1;durP2;ratioP2;P2;SDS_P1;SDS_P2;PMS_P1;PMS_P2;Temp;Humidity;BMP_temperature;BMP_pressure;BME280_temperature;BME280_humidity;BME280_pressure;Samples;Min_cycle;Max_cycle;Signal;HPM_P1;HPM_P2
2023/06/23 00:01:35;;;;;;;0.17;0.17;;;16.80;99.90;;;;;;4978758;28;20073;-76
2023/06/23 00:04:01;;;;;;;0.20;0.20;;;16.80;99.90;;;;;;4979275;28;20050;-83
2023/06/23 00:06:27;;;;;;;1.75;1.58;;;16.80;99.90;;;;;;4963829;28;20042;-82
2023/06/23 00:08:52;;;;;;;0.20;0.20;;;16.80;99.90;;;;;;4980503;28;20510;-83
2023/06/23 00:11:19;;;;;;;0.22;0.22;;;16.80;99.90;;;;;;4977220;28;20023;-76
2023/06/23 00:13:44;;;;;;;0.30;0.30;;;16.80;99.90;;;;;;4977032;28;20023;-75
2023/06/23 00:16:10;;;;;;;0.20;0.20;;;16.80;99.90;;;;;;4978221;28;20188;-75
2023/06/23 00:18:41;;;;;;;0.40;0.40;;;16.80;99.90;;;;;;4961554;28;20034;-82
2023/06/23 00:21:10;;;;;;;1.38;1.27;;;16.90;99.90;;;;;;4979221;28;20037;-82
2023/06/23 00:23:36;;;;;;;0.20;0.20;;;17.00;99.90;;;;;;4979069;28;20027;-78
2023/06/23 00:26:04;;;;;;;0.20;0.20;;;17.00;99.90;;;;;;4978003;28;20034;-74
2023/06/23 00:28:32;;;;;;;0.20;0.20;;;16.90;99.90;;;;;;4977652;28;20517;-75
2023/06/23 00:30:57;;;;;;;0.22;0.22;;;16.90;99.90;;;;;;4976775;28;20105;-81
2023/06/23 00:33:23;;;;;;;0.22;0.22;;;16.90;99.90;;;;;;4962481;28;20687;-75
2023/06/23 00:35:49;;;;;;;0.20;0.20;;;16.80;99.90;;;;;;4978586;28;20026;-81
2023/06/23 00:38:14;;;;;;;0.20;0.20;;;16.80;99.90;;;;;;4976990;28;20593;-82
2023/06/23 00:40:41;;;;;;;0.28;0.28;;;16.80;99.90;;;;;;4978857;28;20447;-82
2023/06/23 00:43:07;;;;;;;0.85;0.85;;;16.70;99.90;;;;;;4978168;28;20029;-82
2023/06/23 00:45:35;;;;;;;0.20;0.20;;;16.80;99.90;;;;;;4978765;28;20113;-82
2023/06/23 00:48:08;;;;;;;0.20;0.20;;;16.70;99.90;;;;;;4977496;28;20018;-81
2023/06/23 00:50:34;;;;;;;0.22;0.22;;;16.70;99.90;;;;;;4979147;28;20152;-75
2023/06/23 00:53:03;;;;;;;0.20;0.20;;;16.70;99.90;;;;;;4976550;28;21547;-76
2023/06/23 00:55:29;;;;;;;0.20;0.20;;;16.70;99.90;;;;;;4982188;28;20038;-75
2023/06/23 00:57:58;;;;;;;0.20;0.20;;;16.80;99.90;;;;;;4963639;28;20022;-76
2023/06/23 01:00:27;;;;;;;0.30;0.30;;;16.80;99.90;;;;;;4980438;28;20053;-76
2023/06/23 01:02:55;;;;;;;0.20;0.20;;;16.80;99.90;;;;;;4982512;28;20036;-75
2023/06/23 01:05:32;;;;;;;0.20;0.20;;;16.90;99.90;;;;;;4981207;28;20026;-75
2023/06/23 01:08:30;;;;;;;0.20;0.20;;;16.90;99.90;;;;;;4979465;28;20114;-74
2023/06/23 01:10:58;;;;;;;0.20;0.20;;;16.90;99.90;;;;;;4990137;28;20045;-82
2023/06/23 01:13:53;;;;;;;0.20;0.20;;;17.00;99.90;;;;;;4981856;28;20030;-82
2023/06/23 01:16:30;;;;;;;0.20;0.20;;;17.00;99.90;;;;;;4981132;28;20038;-83
2023/06/23 01:18:59;;;;;;;0.20;0.20;;;17.00;99.90;;;;;;4981330;28;20027;-82
2023/06/23 01:21:38;;;;;;;0.85;0.85;;;17.10;99.90;;;;;;4982615;28;20385;-82
2023/06/23 01:24:17;;;;;;;0.20;0.20;;;17.10;99.90;;;;;;4981468;28;20462;-83
2023/06/23 01:26:54;;;;;;;0.30;0.30;;;17.10;99.90;;;;;;4979746;28;20466;-83
2023/06/23 01:29:31;;;;;;;0.20;0.20;;;17.20;99.90;;;;;;4982306;28;20037;-75
2023/06/23 01:32:15;;;;;;;0.20;0.20;;;17.20;99.90;;;;;;4979578;28;20022;-76
2023/06/23 01:34:45;;;;;;;0.20;0.20;;;17.20;99.90;;;;;;4981437;28;20033;-82
2023/06/23 01:37:23;;;;;;;4.28;2.20;;;17.20;99.90;;;;;;4979491;28;20026;-75
2023/06/23 01:39:54;;;;;;;0.20;0.20;;;17.20;99.90;;;;;;4984986;28;20121;-76
2023/06/23 01:42:23;;;;;;;0.95;0.95;;;17.30;99.90;;;;;;4985236;28;20042;-76
2023/06/23 01:44:55;;;;;;;0.20;0.20;;;17.30;99.90;;;;;;4960734;28;20147;-76
2023/06/23 01:47:31;;;;;;;0.20;0.20;;;17.30;99.90;;;;;;4984561;28;20053;-75
2023/06/23 01:50:02;;;;;;;0.20;0.20;;;17.30;99.90;;;;;;4985633;28;20038;-75
2023/06/23 01:52:33;;;;;;;0.30;0.30;;;17.30;99.90;;;;;;4984399;28;20471;-75
2023/06/23 01:55:02;;;;;;;0.20;0.20;;;17.30;99.90;;;;;;4981145;28;20027;-75
2023/06/23 01:57:29;;;;;;;0.65;0.57;;;17.30;99.90;;;;;;4983730;28;20065;-81
2023/06/23 01:59:56;;;;;;;0.20;0.20;;;17.30;99.90;;;;;;4983212;28;20042;-80
2023/06/23 02:02:24;;;;;;;0.30;0.30;;;17.40;99.90;;;;;;4986791;28;20378;-81
2023/06/23 02:04:51;;;;;;;0.20;0.20;;;17.40;99.90;;;;;;4967112;28;20031;-75
2023/06/23 02:07:21;;;;;;;0.20;0.20;;;17.40;99.90;;;;;;4984028;28;20046;-76
2023/06/23 02:09:51;;;;;;;0.40;0.40;;;17.40;99.90;;;;;;4984344;28;20022;-76
2023/06/23 02:12:18;;;;;;;0.20;0.20;;;17.40;99.90;;;;;;4985029;28;20359;-76
2023/06/23 02:14:45;;;;;;;0.50;0.50;;;17.40;99.90;;;;;;4982607;28;20065;-75
2023/06/23 02:17:16;;;;;;;0.20;0.20;;;17.40;99.90;;;;;;4986983;28;20065;-82
2023/06/23 02:19:46;;;;;;;0.50;0.50;;;17.40;99.90;;;;;;4980102;28;20053;-75
2023/06/23 02:22:23;;;;;;;0.20;0.20;;;17.40;99.90;;;;;;5123152;23;20089;-79
2023/06/23 02:24:52;;;;;;;0.20;0.20;;;17.40;99.90;;;;;;5006289;28;20061;-83
2023/06/23 02:27:19;;;;;;;0.38;0.38;;;17.40;99.90;;;;;;4966004;28;20465;-82
2023/06/23 02:29:45;;;;;;;0.20;0.20;;;17.40;99.90;;;;;;4984921;28;20546;-83
2023/06/23 02:32:16;;;;;;;1.05;0.95;;;17.40;99.90;;;;;;4986305;28;20049;-84
2023/06/23 02:34:46;;;;;;;0.20;0.20;;;17.40;99.90;;;;;;4982570;28;20034;-76
2023/06/23 02:37:16;;;;;;;0.30;0.30;;;17.40;99.90;;;;;;4980645;28;20027;-83
2023/06/23 02:39:54;;;;;;;0.20;0.20;;;17.40;99.90;;;;;;4984160;28;20033;-84
2023/06/23 02:42:22;;;;;;;0.20;0.20;;;17.40;99.90;;;;;;4986113;28;20034;-84
2023/06/23 02:44:59;;;;;;;0.20;0.20;;;17.40;99.90;;;;;;4968379;28;20026;-76
2023/06/23 02:47:27;;;;;;;0.20;0.20;;;17.30;99.90;;;;;;4985604;28;20034;-82
2023/06/23 02:49:58;;;;;;;0.20;0.20;;;17.30;99.90;;;;;;4981760;28;20501;-78
2023/06/23 02:52:27;;;;;;;0.20;0.20;;;17.30;99.90;;;;;;4970396;28;20022;-81
2023/06/23 02:54:55;;;;;;;0.65;0.65;;;17.40;99.90;;;;;;4983284;28;20028;-80
2023/06/23 02:57:23;;;;;;;0.20;0.20;;;17.40;99.90;;;;;;4966415;28;20027;-81
2023/06/23 02:59:52;;;;;;;0.20;0.20;;;17.40;99.90;;;;;;4986295;28;20034;-75
2023/06/23 03:02:24;;;;;;;0.30;0.30;;;17.40;99.90;;;;;;4980510;28;20006;-74
2023/06/23 03:04:50;;;;;;;0.30;0.30;;;17.40;99.90;;;;;;4983252;28;20615;-74
2023/06/23 03:07:18;;;;;;;0.30;0.30;;;17.40;99.90;;;;;;4982731;28;20033;-83
2023/06/23 03:09:45;;;;;;;0.30;0.30;;;17.40;99.90;;;;;;4984240;28;21374;-83
2023/06/23 03:12:11;;;;;;;0.38;0.38;;;17.40;99.90;;;;;;4984655;28;20026;-74
2023/06/23 03:14:38;;;;;;;0.50;0.50;;;17.40;99.90;;;;;;4978945;28;20054;-74
2023/06/23 03:17:14;;;;;;;0.30;0.30;;;17.40;99.90;;;;;;4960392;28;20070;-74
2023/06/23 03:20:09;;;;;;;0.28;0.28;;;17.40;99.90;;;;;;4982183;28;20035;-80
2023/06/23 03:23:00;;;;;;;0.30;0.30;;;17.40;99.90;;;;;;4985586;28;20038;-82
2023/06/23 03:25:27;;;;;;;0.30;0.30;;;17.40;99.90;;;;;;4985486;28;20037;-82
2023/06/23 03:28:01;;;;;;;0.22;0.22;;;17.30;99.90;;;;;;4983657;28;20121;-81
2023/06/23 03:30:33;;;;;;;0.38;0.38;;;17.30;99.90;;;;;;4981739;28;20373;-74
2023/06/23 03:33:03;;;;;;;0.20;0.20;;;17.30;99.90;;;;;;4983916;28;20030;-82
2023/06/23 03:35:34;;;;;;;0.30;0.30;;;17.30;99.90;;;;;;4980633;28;20026;-82
2023/06/23 03:38:03;;;;;;;0.60;0.60;;;17.30;99.90;;;;;;4983381;28;20034;-82
2023/06/23 03:40:36;;;;;;;0.25;0.25;;;17.30;99.90;;;;;;4969882;28;20042;-80
2023/06/23 03:43:11;;;;;;;0.30;0.30;;;17.40;99.90;;;;;;4980812;28;20426;-74
2023/06/23 03:45:39;;;;;;;0.30;0.30;;;17.40;99.90;;;;;;4959370;28;20034;-82
2023/06/23 03:48:09;;;;;;;0.30;0.30;;;17.40;99.90;;;;;;4981095;28;20600;-74
2023/06/23 03:50:38;;;;;;;0.30;0.30;;;17.40;99.90;;;;;;4964668;28;20024;-74
2023/06/23 03:53:05;;;;;;;0.20;0.20;;;17.40;99.90;;;;;;4980253;28;20018;-78
2023/06/23 03:55:36;;;;;;;0.30;0.30;;;17.50;99.90;;;;;;4982914;28;20061;-82
2023/06/23 03:58:06;;;;;;;0.20;0.20;;;17.50;99.90;;;;;;4981713;28;20046;-74
2023/06/23 04:00:34;;;;;;;0.30;0.30;;;17.50;99.90;;;;;;4982065;28;20156;-74
2023/06/23 04:03:01;;;;;;;0.30;0.30;;;17.50;99.90;;;;;;4982049;28;20022;-74
2023/06/23 04:05:30;;;;;;;0.30;0.30;;;17.50;99.90;;;;;;4961014;28;20030;-75
2023/06/23 04:07:59;;;;;;;0.65;0.65;;;17.40;99.90;;;;;;4979596;28;20054;-74
2023/06/23 04:10:27;;;;;;;0.30;0.30;;;17.50;99.90;;;;;;4983235;28;20034;-78
2023/06/23 04:12:54;;;;;;;0.50;0.50;;;17.50;99.90;;;;;;4980982;28;20018;-74
2023/06/23 04:15:23;;;;;;;0.85;0.85;;;17.50;99.90;;;;;;4979324;28;20052;-75
2023/06/23 04:17:53;;;;;;;1.65;1.17;;;17.50;99.90;;;;;;4977398;28;20098;-75
2023/06/23 04:20:22;;;;;;;0.40;0.40;;;17.50;99.90;;;;;;4982442;28;20041;-81
2023/06/23 04:22:49;;;;;;;0.50;0.50;;;17.60;99.90;;;;;;4971298;28;20118;-83
2023/06/23 04:25:17;;;;;;;0.30;0.30;;;17.60;99.90;;;;;;4980589;28;20104;-75
2023/06/23 04:27:45;;;;;;;0.82;0.82;;;17.60;99.90;;;;;;4985550;28;20030;-82
2023/06/23 04:30:13;;;;;;;0.60;0.60;;;17.70;99.90;;;;;;4982871;28;20034;-82
2023/06/23 04:32:40;;;;;;;0.50;0.50;;;17.70;99.90;;;;;;5014761;28;20030;-82
2023/06/23 04:35:06;;;;;;;0.40;0.40;;;17.70;99.90;;;;;;4995542;28;20467;-81
2023/06/23 04:37:42;;;;;;;0.38;0.38;;;17.70;99.90;;;;;;4992310;28;20026;-85
2023/06/23 04:40:08;;;;;;;0.50;0.50;;;17.80;99.90;;;;;;4990157;28;20050;-82
2023/06/23 04:42:45;;;;;;;0.30;0.30;;;17.80;99.90;;;;;;4992733;28;20566;-83
2023/06/23 04:45:17;;;;;;;1.65;1.02;;;17.80;99.90;;;;;;5012755;28;20027;-83
2023/06/23 04:47:48;;;;;;;0.50;0.50;;;17.80;99.90;;;;;;5011473;28;20045;-82
2023/06/23 04:50:16;;;;;;;0.50;0.50;;;17.90;99.90;;;;;;4994110;28;20672;-85
2023/06/23 04:52:48;;;;;;;0.40;0.40;;;17.80;99.90;;;;;;4988051;28;20103;-74
2023/06/23 04:55:17;;;;;;;0.30;0.30;;;17.80;99.90;;;;;;4992317;28;20088;-74
2023/06/23 04:57:45;;;;;;;0.40;0.40;;;17.80;99.90;;;;;;5010035;28;20026;-78
2023/06/23 05:00:15;;;;;;;0.50;0.50;;;17.90;99.90;;;;;;5002385;28;20026;-81
2023/06/23 05:02:44;;;;;;;0.43;0.43;;;17.90;99.90;;;;;;4993999;28;20037;-82
2023/06/23 05:05:16;;;;;;;0.30;0.30;;;18.00;99.90;;;;;;4988392;28;20034;-80
2023/06/23 05:07:43;;;;;;;0.40;0.40;;;18.00;99.90;;;;;;4990023;28;20045;-82
2023/06/23 05:10:10;;;;;;;0.50;0.50;;;18.00;99.90;;;;;;4993410;28;20080;-84
2023/06/23 05:12:38;;;;;;;0.30;0.30;;;18.00;99.90;;;;;;4993689;28;20026;-84
2023/06/23 05:15:07;;;;;;;0.30;0.30;;;18.10;99.90;;;;;;4953561;28;20038;-83
2023/06/23 05:17:37;;;;;;;0.40;0.40;;;18.20;99.90;;;;;;4990604;28;20524;-82
2023/06/23 05:20:04;;;;;;;1.45;1.25;;;18.20;99.90;;;;;;4992954;28;20050;-75
2023/06/23 05:22:32;;;;;;;0.30;0.30;;;18.30;99.90;;;;;;4981019;28;20037;-75
2023/06/23 05:25:03;;;;;;;0.20;0.20;;;18.40;99.90;;;;;;4984651;28;20116;-83
2023/06/23 05:27:31;;;;;;;0.30;0.30;;;18.50;99.90;;;;;;4995767;28;20034;-83
2023/06/23 05:29:58;;;;;;;0.65;0.65;;;18.50;99.90;;;;;;4976887;28;20022;-84
2023/06/23 05:32:27;;;;;;;0.40;0.40;;;18.50;99.90;;;;;;4990004;28;20029;-84
2023/06/23 05:34:58;;;;;;;0.40;0.40;;;18.60;99.90;;;;;;4992391;28;20030;-83
2023/06/23 05:37:25;;;;;;;0.57;0.57;;;18.60;99.90;;;;;;4976049;28;20039;-87
2023/06/23 05:39:52;;;;;;;0.38;0.38;;;18.70;99.90;;;;;;4968885;28;20487;-76
2023/06/23 05:42:19;;;;;;;3.22;1.98;;;18.80;99.90;;;;;;4985185;28;20111;-85
2023/06/23 05:44:46;;;;;;;0.32;0.32;;;18.80;99.90;;;;;;4969298;28;20523;-76
2023/06/23 05:47:18;;;;;;;0.45;0.45;;;18.70;99.90;;;;;;4979381;28;20062;-77
2023/06/23 05:49:45;;;;;;;0.60;0.60;;;18.70;99.90;;;;;;4969883;28;20089;-76
2023/06/23 05:52:16;;;;;;;0.60;0.60;;;18.80;99.90;;;;;;4980594;28;20203;-76
2023/06/23 05:54:46;;;;;;;0.38;0.38;;;18.90;99.90;;;;;;4980514;28;20398;-76
2023/06/23 05:57:24;;;;;;;0.77;0.77;;;18.90;99.90;;;;;;4976670;28;20293;-75
2023/06/23 06:00:06;;;;;;;0.75;0.70;;;18.90;99.90;;;;;;4985728;28;20018;-75
2023/06/23 06:02:35;;;;;;;0.50;0.50;;;18.90;99.90;;;;;;4982784;28;20018;-78
2023/06/23 06:05:07;;;;;;;0.93;0.93;;;18.90;99.90;;;;;;4985350;28;20081;-75
2023/06/23 06:07:36;;;;;;;1.05;1.05;;;18.90;99.90;;;;;;4982915;28;20383;-75
2023/06/23 06:10:07;;;;;;;0.60;0.60;;;18.90;99.90;;;;;;4983700;28;20385;-74
2023/06/23 06:12:34;;;;;;;0.77;0.77;;;18.90;99.90;;;;;;4985188;28;20034;-75
2023/06/23 06:15:03;;;;;;;0.50;0.50;;;18.90;99.90;;;;;;4987594;28;20509;-75
2023/06/23 06:17:31;;;;;;;0.70;0.70;;;18.80;99.90;;;;;;4982129;28;20041;-75
2023/06/23 06:20:02;;;;;;;0.57;0.57;;;18.80;99.90;;;;;;4969967;28;20602;-76
2023/06/23 06:22:31;;;;;;;0.50;0.50;;;18.90;99.90;;;;;;4986596;28;20737;-78
2023/06/23 06:24:59;;;;;;;0.88;0.88;;;18.90;99.90;;;;;;4988210;28;20087;-79
2023/06/23 06:27:27;;;;;;;0.65;0.65;;;18.90;99.90;;;;;;4987255;28;20074;-86
2023/06/23 06:29:55;;;;;;;0.50;0.50;;;19.00;99.90;;;;;;4961840;28;20023;-82
2023/06/23 06:32:22;;;;;;;0.60;0.60;;;19.10;99.90;;;;;;4984483;28;20065;-85
2023/06/23 06:34:50;;;;;;;0.60;0.60;;;19.20;99.90;;;;;;4989754;28;20510;-82
2023/06/23 06:37:17;;;;;;;0.88;0.88;;;19.30;99.90;;;;;;4979936;28;20034;-80
2023/06/23 06:39:44;;;;;;;0.63;0.63;;;19.40;99.90;;;;;;4990652;28;20092;-80
2023/06/23 06:42:10;;;;;;;0.60;0.60;;;19.40;99.90;;;;;;4987727;28;20030;-81
2023/06/23 06:44:36;;;;;;;1.30;1.30;;;19.50;99.90;;;;;;4969770;28;20034;-80
2023/06/23 06:47:04;;;;;;;0.93;0.93;;;19.50;99.90;;;;;;4981985;28;20049;-81
2023/06/23 06:49:31;;;;;;;0.75;0.75;;;19.60;99.90;;;;;;4983652;28;20079;-76
2023/06/23 06:52:00;;;;;;;0.82;0.82;;;19.70;99.90;;;;;;4967841;28;20023;-77
2023/06/23 06:54:26;;;;;;;0.68;0.68;;;19.80;99.90;;;;;;4972308;28;20034;-77
2023/06/23 06:56:57;;;;;;;0.77;0.77;;;19.80;99.90;;;;;;4983034;28;20394;-76
2023/06/23 06:59:23;;;;;;;0.63;0.63;;;19.90;99.90;;;;;;4980552;28;20034;-78
2023/06/23 07:01:49;;;;;;;0.80;0.80;;;20.00;99.90;;;;;;4985033;28;20025;-76
2023/06/23 07:04:15;;;;;;;0.90;0.90;;;20.10;99.90;;;;;;4985490;28;20032;-76
2023/06/23 07:06:41;;;;;;;1.48;0.90;;;20.10;99.90;;;;;;4983539;28;20524;-75
2023/06/23 07:09:07;;;;;;;0.60;0.60;;;20.10;99.90;;;;;;4980923;28;20062;-75
2023/06/23 07:11:33;;;;;;;0.40;0.40;;;20.20;99.90;;;;;;4971274;28;20022;-76
2023/06/23 07:13:59;;;;;;;0.50;0.50;;;20.40;99.90;;;;;;4964584;28;20026;-77
2023/06/23 07:16:30;;;;;;;0.60;0.60;;;20.40;99.90;;;;;;4974912;28;20059;-78
2023/06/23 07:18:56;;;;;;;0.60;0.60;;;20.40;99.90;;;;;;4969068;28;20129;-76
2023/06/23 07:21:22;;;;;;;0.45;0.45;;;20.50;99.90;;;;;;4993331;28;20024;-89
2023/06/23 07:23:47;;;;;;;0.25;0.25;;;20.60;99.90;;;;;;4997797;28;20065;-88
2023/06/23 07:26:13;;;;;;;0.20;0.20;;;20.60;99.90;;;;;;4993245;28;20257;-88
2023/06/23 07:28:41;;;;;;;1.33;1.33;;;20.50;99.90;;;;;;4976756;28;20477;-81
2023/06/23 07:31:07;;;;;;;0.30;0.30;;;20.60;99.90;;;;;;4988406;28;20414;-80
2023/06/23 07:33:32;;;;;;;0.35;0.35;;;20.70;99.90;;;;;;4995624;28;20157;-82
2023/06/23 07:35:58;;;;;;;0.38;0.38;;;21.00;99.90;;;;;;4984599;28;20105;-73
2023/06/23 07:38:24;;;;;;;0.30;0.30;;;21.10;99.90;;;;;;4985910;28;20022;-79
2023/06/23 07:40:49;;;;;;;0.20;0.20;;;21.20;99.90;;;;;;4968889;28;20050;-83
2023/06/23 07:43:15;;;;;;;0.22;0.22;;;21.20;99.90;;;;;;4990818;28;20053;-80
2023/06/23 07:45:41;;;;;;;0.40;0.40;;;21.30;99.90;;;;;;4991114;28;20092;-84
2023/06/23 07:48:07;;;;;;;0.30;0.30;;;21.40;99.90;;;;;;4983954;28;20038;-74
2023/06/23 07:50:32;;;;;;;0.77;0.77;;;21.40;99.90;;;;;;4980363;28;20454;-75
2023/06/23 07:52:58;;;;;;;0.22;0.22;;;21.50;99.90;;;;;;4973930;28;20031;-75
2023/06/23 07:55:24;;;;;;;0.20;0.20;;;21.70;99.90;;;;;;4986744;28;20022;-75
2023/06/23 07:57:49;;;;;;;0.30;0.30;;;21.80;99.90;;;;;;4977973;28;20518;-76
2023/06/23 08:00:16;;;;;;;0.68;0.68;;;22.00;99.90;;;;;;5128658;23;20904;-82
2023/06/23 08:02:42;;;;;;;0.88;0.88;;;22.20;99.90;;;;;;4955889;28;20023;-79
2023/06/23 08:05:08;;;;;;;0.47;0.47;;;22.40;99.90;;;;;;4956599;28;20038;-83
2023/06/23 08:07:35;;;;;;;0.30;0.30;;;22.50;99.90;;;;;;4960687;28;20026;-76
2023/06/23 08:10:03;;;;;;;0.38;0.38;;;22.50;99.90;;;;;;4935698;28;20023;-76
2023/06/23 08:12:29;;;;;;;0.38;0.38;;;22.40;99.90;;;;;;4951814;28;20030;-75
2023/06/23 08:14:54;;;;;;;0.88;0.82;;;22.50;99.90;;;;;;4951151;28;20070;-80
2023/06/23 08:17:22;;;;;;;2.33;2.13;;;22.80;99.90;;;;;;4953431;28;20029;-78
2023/06/23 08:19:48;;;;;;;0.32;0.32;;;23.00;99.90;;;;;;4954472;28;20038;-78
2023/06/23 08:22:14;;;;;;;0.40;0.40;;;23.10;99.90;;;;;;4956106;28;20023;-81
2023/06/23 08:24:42;;;;;;;0.70;0.70;;;23.30;99.90;;;;;;4950298;28;20478;-79
2023/06/23 08:27:08;;;;;;;0.40;0.40;;;23.50;99.90;;;;;;4953963;28;20164;-76
2023/06/23 08:29:38;;;;;;;0.63;0.63;;;23.80;99.90;;;;;;4951698;28;20470;-79
2023/06/23 08:32:08;;;;;;;0.57;0.57;;;24.10;99.90;;;;;;4936574;28;20150;-77
2023/06/23 08:34:37;;;;;;;0.80;0.80;;;24.30;99.90;;;;;;4943947;28;20379;-87
2023/06/23 08:37:02;;;;;;;0.57;0.57;;;24.40;99.90;;;;;;4966696;28;20030;-85
2023/06/23 08:39:31;;;;;;;0.60;0.60;;;24.60;99.90;;;;;;4952849;28;20033;-87
2023/06/23 08:42:02;;;;;;;0.60;0.60;;;24.90;99.90;;;;;;4975661;28;20042;-87
2023/06/23 08:44:29;;;;;;;0.55;0.55;;;25.20;99.90;;;;;;4946410;28;20034;-87
2023/06/23 08:47:02;;;;;;;0.88;0.85;;;25.50;99.90;;;;;;4963724;28;20671;-85
2023/06/23 08:49:44;;;;;;;;;;;;;;;;;;;;;
2023/06/23 08:52:11;;;;;;;0.90;0.90;;;25.60;99.90;;;;;;4971037;28;20103;-84
2023/06/23 08:54:37;;;;;;;0.90;0.90;;;25.10;99.90;;;;;;4953450;28;20034;-86
2023/06/23 08:57:04;;;;;;;0.70;0.70;;;25.40;99.90;;;;;;4958408;28;20110;-87
2023/06/23 08:59:36;;;;;;;0.80;0.80;;;25.50;99.90;;;;;;4939703;28;20035;-80
2023/06/23 09:02:04;;;;;;;0.70;0.70;;;25.80;99.90;;;;;;4937955;28;20387;-76
2023/06/23 09:04:32;;;;;;;1.38;1.38;;;26.00;99.90;;;;;;4951627;28;20632;-78
2023/06/23 09:06:58;;;;;;;0.75;0.75;;;26.20;99.90;;;;;;4950838;28;20864;-77
2023/06/23 09:09:27;;;;;;;1.17;1.17;;;26.30;99.90;;;;;;4950119;28;20110;-76
2023/06/23 09:11:55;;;;;;;0.70;0.70;;;26.30;99.90;;;;;;4950577;28;20035;-77
2023/06/23 09:14:22;;;;;;;1.40;1.40;;;26.60;99.90;;;;;;4955194;28;20027;-77
2023/06/23 09:16:48;;;;;;;1.10;1.10;;;26.50;99.90;;;;;;4957101;28;20328;-77
2023/06/23 09:19:15;;;;;;;0.80;0.80;;;26.30;99.90;;;;;;4952558;28;20011;-85
2023/06/23 09:21:41;;;;;;;0.85;0.85;;;26.60;99.90;;;;;;4966698;28;20346;-85
2023/06/23 09:24:07;;;;;;;0.80;0.80;;;26.30;99.90;;;;;;4968639;28;20136;-84
2023/06/23 09:26:55;;;;;;;0.90;0.90;;;26.10;99.90;;;;;;4971931;28;20073;-87
2023/06/23 09:29:22;;;;;;;1.05;1.05;;;26.50;99.90;;;;;;4968089;28;20027;-89
2023/06/23 09:31:49;;;;;;;0.70;0.70;;;26.70;99.90;;;;;;4960132;28;20030;-83
2023/06/23 09:34:30;;;;;;;0.60;0.60;;;26.80;99.90;;;;;;4963111;28;20098;-77
2023/06/23 09:37:06;;;;;;;0.70;0.70;;;26.80;99.90;;;;;;4959933;28;20139;-86
2023/06/23 09:39:48;;;;;;;0.73;0.73;;;27.10;99.50;;;;;;4948427;28;20030;-86
2023/06/23 09:42:14;;;;;;;0.95;0.95;;;27.40;97.50;;;;;;4965307;28;20074;-87
2023/06/23 09:44:45;;;;;;;0.70;0.70;;;27.70;98.60;;;;;;4966853;28;20863;-83
2023/06/23 09:47:14;;;;;;;0.63;0.63;;;27.90;97.20;;;;;;4940199;28;20039;-77
2023/06/23 09:49:44;;;;;;;0.70;0.70;;;28.20;97.30;;;;;;4956793;28;20026;-78
2023/06/23 09:52:13;;;;;;;0.60;0.60;;;28.40;95.30;;;;;;4938328;28;20034;-78
2023/06/23 09:54:41;;;;;;;0.60;0.60;;;28.10;93.60;;;;;;4939627;28;20026;-76
2023/06/23 09:57:07;;;;;;;0.80;0.80;;;28.00;93.10;;;;;;4959926;28;20312;-87
2023/06/23 09:59:35;;;;;;;1.35;1.27;;;28.00;93.00;;;;;;4962298;28;20129;-82
2023/06/23 10:02:03;;;;;;;0.90;0.90;;;28.10;93.40;;;;;;4960577;28;20361;-76
2023/06/23 10:04:32;;;;;;;0.90;0.90;;;28.60;91.00;;;;;;4954537;28;20815;-76
2023/06/23 10:07:16;;;;;;;0.80;0.80;;;28.70;91.90;;;;;;4956812;28;20468;-76
2023/06/23 10:09:51;;;;;;;0.80;0.80;;;29.00;91.60;;;;;;4936636;28;20421;-76
2023/06/23 10:12:23;;;;;;;0.60;0.60;;;29.10;91.10;;;;;;4954876;28;20114;-77
2023/06/23 10:14:52;;;;;;;1.85;1.65;;;29.10;88.70;;;;;;4958727;28;20023;-86
2023/06/23 10:17:18;;;;;;;0.80;0.80;;;28.90;90.10;;;;;;4964994;28;20023;-82
2023/06/23 10:19:48;;;;;;;0.70;0.70;;;28.60;84.80;;;;;;4952666;28;20039;-77
2023/06/23 10:22:16;;;;;;;0.70;0.70;;;28.60;90.00;;;;;;4944607;28;20058;-78
2023/06/23 10:24:49;;;;;;;0.60;0.60;;;28.70;89.40;;;;;;4961004;28;20029;-82
2023/06/23 10:27:22;;;;;;;1.02;1.02;;;28.90;86.60;;;;;;4963863;28;20074;-82
2023/06/23 10:29:53;;;;;;;0.70;0.70;;;29.10;90.30;;;;;;4957956;28;20030;-81
2023/06/23 10:32:25;;;;;;;0.77;0.77;;;29.60;86.20;;;;;;4941145;28;20018;-84
2023/06/23 10:34:51;;;;;;;0.80;0.80;;;30.00;84.40;;;;;;4934469;28;20337;-82
2023/06/23 10:37:22;;;;;;;0.70;0.70;;;30.30;83.00;;;;;;4962820;28;20046;-83
2023/06/23 10:39:56;;;;;;;12.45;1.80;;;30.90;80.30;;;;;;4958728;28;20030;-81
2023/06/23 10:42:23;;;;;;;0.88;0.88;;;31.10;76.90;;;;;;4960031;28;20023;-88
2023/06/23 10:44:50;;;;;;;0.82;0.82;;;31.40;76.30;;;;;;4944117;28;20031;-86
2023/06/23 10:47:18;;;;;;;0.90;0.90;;;30.70;76.00;;;;;;4966885;28;20035;-85
2023/06/23 10:49:45;;;;;;;0.70;0.70;;;30.30;79.10;;;;;;4972179;28;20065;-88
2023/06/23 10:52:14;;;;;;;0.50;0.50;;;30.50;78.60;;;;;;4976200;28;20019;-82
2023/06/23 10:54:39;;;;;;;0.70;0.70;;;30.70;73.40;;;;;;4957206;28;20622;-86
2023/06/23 10:57:10;;;;;;;1.80;1.70;;;31.00;72.80;;;;;;4985852;28;20030;-85
2023/06/23 10:59:40;;;;;;;0.75;0.75;;;30.60;77.00;;;;;;4976006;28;20062;-84
2023/06/23 11:02:09;;;;;;;0.60;0.60;;;30.80;80.40;;;;;;4945442;28;20039;-79
2023/06/23 11:04:49;;;;;;;2.55;1.65;;;30.20;77.90;;;;;;4958771;28;20102;-77
2023/06/23 11:07:15;;;;;;;1.00;1.00;;;29.50;80.70;;;;;;4956616;28;20035;-77
2023/06/23 11:09:55;;;;;;;0.63;0.63;;;29.70;84.60;;;;;;4958147;28;20050;-81
2023/06/23 11:12:38;;;;;;;0.93;0.93;;;30.10;78.50;;;;;;4944594;28;20039;-84
2023/06/23 11:15:16;;;;;;;0.98;0.98;;;30.40;78.60;;;;;;4957983;28;20510;-78
2023/06/23 11:17:45;;;;;;;0.93;0.93;;;30.90;78.10;;;;;;4952852;28;20042;-80
2023/06/23 11:20:13;;;;;;;0.85;0.85;;;30.90;77.80;;;;;;4940652;28;20446;-80
2023/06/23 11:22:42;;;;;;;0.80;0.80;;;30.40;78.90;;;;;;4957523;28;20045;-78
2023/06/23 11:25:08;;;;;;;0.73;0.73;;;29.50;80.20;;;;;;4962629;28;20031;-91
2023/06/23 11:27:34;;;;;;;3.63;1.40;;;29.00;80.00;;;;;;4936730;28;20494;-80
2023/06/23 11:30:18;;;;;;;0.63;0.63;;;29.00;81.90;;;;;;4941088;28;20637;-80
2023/06/23 11:32:44;;;;;;;0.75;0.75;;;29.50;80.70;;;;;;4958286;28;20023;-82
2023/06/23 11:35:10;;;;;;;0.70;0.70;;;29.70;80.20;;;;;;4957604;28;20042;-79
2023/06/23 11:37:38;;;;;;;0.80;0.80;;;30.00;80.30;;;;;;4938811;28;20027;-79
2023/06/23 11:40:08;;;;;;;0.82;0.82;;;30.00;77.50;;;;;;4954881;28;20613;-80
2023/06/23 11:42:34;;;;;;;1.00;1.00;;;29.80;80.00;;;;;;4959834;28;20490;-79
2023/06/23 11:45:03;;;;;;;0.73;0.73;;;29.70;77.60;;;;;;4957700;28;20039;-79
2023/06/23 11:47:29;;;;;;;1.17;1.17;;;29.70;80.90;;;;;;4953255;28;20047;-77
2023/06/23 11:49:55;;;;;;;1.00;1.00;;;30.10;79.70;;;;;;4937966;28;20034;-81
2023/06/23 11:52:24;;;;;;;0.93;0.93;;;30.20;76.80;;;;;;4963984;28;20035;-92
2023/06/23 11:54:51;;;;;;;0.93;0.93;;;30.00;78.20;;;;;;4969992;28;20019;-91
2023/06/23 11:57:21;;;;;;;0.80;0.80;;;29.80;78.80;;;;;;4968073;28;20022;-93
2023/06/23 11:59:54;;;;;;;0.90;0.90;;;29.40;79.00;;;;;;4953281;28;20042;-93
2023/06/23 12:02:20;;;;;;;0.90;0.90;;;29.60;81.90;;;;;;4967311;28;20248;-92
2023/06/23 12:04:52;;;;;;;0.80;0.80;;;29.70;78.70;;;;;;4950256;28;20612;-79
2023/06/23 12:07:25;;;;;;;0.80;0.80;;;29.50;80.90;;;;;;4947620;28;20035;-79
2023/06/23 12:09:57;;;;;;;;;;;29.80;79.50;;;;;;4962440;28;20482;-79
2023/06/23 12:12:23;;;;;;;0.80;0.80;;;29.70;77.30;;;;;;4943949;28;19906;-83
2023/06/23 12:14:49;;;;;;;0.80;0.80;;;29.50;77.80;;;;;;4949390;28;20441;-84
2023/06/23 12:17:15;;;;;;;0.70;0.70;;;29.50;77.00;;;;;;4964580;28;20066;-85
2023/06/23 12:19:43;;;;;;;0.80;0.80;;;30.00;77.60;;;;;;4945675;28;20050;-86
2023/06/23 12:22:18;;;;;;;0.77;0.77;;;30.40;77.40;;;;;;4946278;28;20414;-86
2023/06/23 12:24:44;;;;;;;0.70;0.70;;;30.20;74.60;;;;;;4962008;28;20114;-79
2023/06/23 12:27:11;;;;;;;0.88;0.88;;;30.00;76.10;;;;;;4950723;28;20035;-80
2023/06/23 12:29:41;;;;;;;0.80;0.80;;;29.70;74.90;;;;;;4964531;28;20038;-85
2023/06/23 12:32:07;;;;;;;0.80;0.80;;;29.60;75.00;;;;;;4952592;28;20602;-85
2023/06/23 12:34:35;;;;;;;0.60;0.60;;;29.90;76.70;;;;;;4966078;28;20107;-82
2023/06/23 12:37:02;;;;;;;0.77;0.77;;;29.70;75.30;;;;;;4984613;28;20236;-83
2023/06/23 12:39:33;;;;;;;0.80;0.80;;;28.90;77.00;;;;;;4983716;28;20041;-86
2023/06/23 12:42:01;;;;;;;1.00;1.00;;;28.70;77.30;;;;;;4974025;28;20023;-78
2023/06/23 12:44:29;;;;;;;1.10;1.10;;;28.80;77.50;;;;;;4948937;28;20030;-85
2023/06/23 12:46:57;;;;;;;0.80;0.80;;;29.30;77.00;;;;;;4947655;28;20038;-82
2023/06/23 12:49:31;;;;;;;0.80;0.80;;;29.60;73.70;;;;;;4947108;28;20336;-79
2023/06/23 12:51:57;;;;;;;1.05;1.05;;;29.60;74.80;;;;;;4966115;28;20019;-81
2023/06/23 12:54:26;;;;;;;0.90;0.90;;;30.20;72.00;;;;;;4962642;28;20047;-85
2023/06/23 12:57:11;;;;;;;0.82;0.82;;;30.30;71.00;;;;;;4969379;28;20230;-85
2023/06/23 12:59:46;;;;;;;1.33;1.33;;;30.40;72.20;;;;;;4973211;28;20027;-84